createdAt,value
2023-07-15T00:01:40.042Z,5.75
2023-07-15T00:04:15.449Z,6.45
2023-07-15T00:06:43.085Z,7.55
2023-07-15T00:09:11.013Z,10.32
2023-07-15T00:11:43.473Z,6.20
2023-07-15T00:14:20.251Z,4.68
2023-07-15T00:16:47.484Z,9.27
2023-07-15T00:19:14.838Z,5.80
2023-07-15T00:21:41.740Z,4.43
2023-07-15T00:24:09.220Z,3.70
2023-07-15T00:26:36.905Z,10.48
2023-07-15T00:29:06.084Z,5.75
2023-07-15T00:31:36.594Z,5.40
2023-07-15T00:34:04.431Z,9.43
2023-07-15T00:36:37.613Z,4.97
2023-07-15T00:39:06.272Z,6.03
2023-07-15T00:41:36.372Z,6.22
2023-07-15T00:44:08.266Z,5.20
2023-07-15T00:46:53.934Z,4.18
2023-07-15T00:49:23.556Z,4.32
2023-07-15T00:52:13.815Z,4.35
2023-07-15T00:54:45.560Z,5.55
2023-07-15T00:57:15.215Z,4.20
2023-07-15T00:59:47.790Z,4.50
2023-07-15T01:02:16.445Z,6.68
2023-07-15T01:04:45.840Z,5.70
2023-07-15T01:07:12.680Z,5.10
2023-07-15T01:09:41.000Z,3.95
2023-07-15T01:12:09.537Z,3.15
2023-07-15T01:14:38.679Z,4.88
2023-07-15T01:17:07.249Z,2.53
2023-07-15T01:19:35.514Z,5.13
2023-07-15T01:22:03.416Z,3.00
2023-07-15T01:24:31.860Z,3.97
2023-07-15T01:27:02.785Z,6.18
2023-07-15T01:29:30.222Z,3.08
2023-07-15T01:31:57.291Z,4.90
2023-07-15T01:34:24.200Z,3.25
2023-07-15T01:36:52.565Z,5.53
2023-07-15T01:39:23.647Z,4.15
2023-07-15T01:41:50.761Z,2.38
2023-07-15T01:44:17.969Z,3.75
2023-07-15T01:46:45.315Z,3.00
2023-07-15T01:49:12.367Z,3.28
2023-07-15T01:51:41.942Z,3.90
2023-07-15T01:54:09.024Z,5.45
2023-07-15T01:56:37.933Z,5.38
2023-07-15T01:59:06.227Z,5.10
2023-07-15T02:01:33.248Z,4.15
2023-07-15T02:04:01.562Z,3.17
2023-07-15T02:06:30.342Z,6.85
2023-07-15T02:08:59.958Z,3.70
2023-07-15T02:11:27.169Z,6.72
2023-07-15T02:13:57.048Z,3.22
2023-07-15T02:16:24.058Z,7.65
2023-07-15T02:18:51.350Z,3.45
2023-07-15T02:21:21.244Z,6.32
2023-07-15T02:23:47.871Z,7.28
2023-07-15T02:26:19.883Z,4.50
2023-07-15T02:28:47.399Z,10.70
2023-07-15T02:31:14.767Z,6.43
2023-07-15T02:33:41.532Z,5.72
2023-07-15T02:36:08.229Z,5.32
2023-07-15T02:38:40.160Z,3.58
2023-07-15T02:41:10.206Z,5.28
2023-07-15T02:43:38.218Z,5.88
2023-07-15T02:46:05.068Z,3.53
2023-07-15T02:48:32.271Z,4.45
2023-07-15T02:51:00.047Z,7.28
2023-07-15T02:55:54.804Z,4.88
2023-07-15T02:58:23.555Z,3.33
2023-07-15T03:00:52.814Z,7.68
2023-07-15T03:03:22.109Z,5.40
2023-07-15T03:05:50.355Z,6.13
2023-07-15T03:08:21.494Z,5.28
2023-07-15T03:10:48.849Z,3.78
2023-07-15T03:13:16.522Z,3.63
2023-07-15T03:18:11.183Z,5.03
2023-07-15T03:20:38.628Z,5.43
2023-07-15T03:23:07.589Z,4.60
2023-07-15T03:25:34.870Z,3.50
2023-07-15T03:28:01.944Z,3.75
2023-07-15T03:30:30.442Z,5.20
2023-07-15T03:32:58.424Z,3.72
2023-07-15T03:35:25.773Z,3.58
2023-07-15T03:37:53.203Z,4.47
2023-07-15T03:40:20.760Z,4.25
2023-07-15T03:42:48.811Z,3.88
2023-07-15T03:45:16.037Z,4.43
2023-07-15T03:47:46.158Z,4.45
2023-07-15T03:50:13.885Z,4.28
2023-07-15T03:52:40.795Z,4.05
2023-07-15T03:55:07.791Z,4.93
2023-07-15T03:57:35.325Z,5.53
2023-07-15T04:00:02.690Z,3.80
2023-07-15T04:02:30.903Z,3.83
2023-07-15T04:07:25.165Z,6.80
2023-07-15T04:09:52.082Z,7.22
2023-07-15T04:12:18.732Z,3.92
2023-07-15T04:14:46.118Z,4.10
2023-07-15T04:17:12.907Z,6.15
2023-07-15T04:19:41.585Z,5.97
2023-07-15T04:22:08.815Z,4.10
2023-07-15T04:24:36.072Z,4.60
2023-07-15T04:27:08.544Z,5.13
2023-07-15T04:29:35.586Z,3.10
2023-07-15T04:32:21.259Z,7.35
2023-07-15T04:37:18.628Z,9.20
2023-07-15T04:39:45.917Z,4.30
2023-07-15T04:42:17.432Z,4.15
2023-07-15T04:44:44.501Z,7.13
2023-07-15T04:47:14.288Z,4.00
2023-07-15T04:49:41.166Z,4.40
2023-07-15T04:52:10.427Z,4.93
2023-07-15T04:54:37.220Z,7.50
2023-07-15T04:57:04.856Z,4.88
2023-07-15T05:01:59.447Z,6.05
2023-07-15T05:04:26.496Z,4.43
2023-07-15T05:06:54.558Z,5.07
2023-07-15T05:09:21.970Z,4.32
2023-07-15T05:11:50.000Z,5.72
2023-07-15T05:14:17.861Z,4.32
2023-07-15T05:19:12.604Z,4.50
2023-07-15T05:21:39.729Z,3.42
2023-07-15T05:24:07.592Z,2.80
2023-07-15T05:26:35.519Z,5.57
2023-07-15T05:29:02.928Z,3.03
2023-07-15T05:31:29.760Z,5.35
2023-07-15T05:33:56.547Z,2.78
2023-07-15T05:36:23.508Z,5.18
2023-07-15T05:38:52.856Z,4.80
2023-07-15T05:41:19.558Z,4.28
2023-07-15T05:43:47.674Z,6.00
2023-07-15T05:46:14.525Z,3.63
2023-07-15T05:48:41.627Z,3.63
2023-07-15T05:51:11.528Z,3.05
2023-07-15T05:53:38.433Z,4.43
2023-07-15T05:56:06.370Z,7.22
2023-07-15T05:58:33.167Z,3.70
2023-07-15T06:01:05.367Z,2.53
2023-07-15T06:03:32.442Z,4.13
2023-07-15T06:06:05.984Z,4.45
2023-07-15T06:08:33.666Z,3.85
2023-07-15T06:11:01.198Z,4.10
2023-07-15T06:13:30.647Z,2.75
2023-07-15T06:15:57.936Z,2.35
2023-07-15T06:18:24.673Z,2.75
2023-07-15T06:20:51.394Z,5.05
2023-07-15T06:23:19.633Z,1.77
2023-07-15T06:25:46.569Z,6.22
2023-07-15T06:28:13.460Z,3.42
2023-07-15T06:30:40.240Z,3.25
2023-07-15T06:33:07.769Z,2.72
2023-07-15T06:35:34.773Z,5.80
2023-07-15T06:38:01.418Z,3.20
2023-07-15T06:40:31.375Z,3.40
2023-07-15T06:42:58.680Z,4.10
2023-07-15T06:45:35.032Z,3.05
2023-07-15T06:48:04.844Z,2.83
2023-07-15T06:50:31.968Z,2.55
2023-07-15T06:52:58.589Z,3.15
2023-07-15T06:55:25.485Z,2.97
2023-07-15T06:57:53.299Z,1.60
2023-07-15T07:02:46.622Z,3.22
2023-07-15T07:05:15.786Z,3.30
2023-07-15T07:07:45.544Z,5.30
2023-07-15T07:10:12.481Z,3.55
2023-07-15T07:12:39.476Z,2.95
2023-07-15T07:15:07.416Z,4.05
2023-07-15T07:17:34.278Z,3.45
2023-07-15T07:20:03.703Z,2.72
2023-07-15T07:22:32.169Z,3.03
2023-07-15T07:24:59.969Z,4.53
2023-07-15T07:30:00.504Z,2.70
2023-07-15T07:32:28.588Z,1.67
2023-07-15T07:34:55.761Z,3.60
2023-07-15T07:37:22.723Z,2.22
2023-07-15T07:39:49.444Z,2.83
2023-07-15T07:42:16.377Z,2.42
2023-07-15T07:44:43.747Z,1.55
2023-07-15T07:47:10.554Z,1.77
2023-07-15T07:49:37.293Z,1.17
2023-07-15T07:52:04.549Z,1.13
2023-07-15T07:54:31.580Z,1.73
2023-07-15T07:57:01.017Z,1.75
2023-07-15T07:59:27.906Z,5.55
2023-07-15T08:01:57.518Z,3.60
2023-07-15T08:04:24.983Z,1.60
2023-07-15T08:06:52.151Z,6.10
2023-07-15T08:09:19.077Z,2.45
2023-07-15T08:11:45.961Z,2.15
2023-07-15T08:14:12.784Z,1.48
2023-07-15T08:16:40.895Z,3.17
2023-07-15T08:19:08.483Z,2.47
2023-07-15T08:21:35.868Z,1.98
2023-07-15T08:24:03.839Z,3.60
2023-07-15T08:26:30.655Z,1.92
2023-07-15T08:28:59.760Z,4.10
2023-07-15T08:31:28.176Z,1.73
2023-07-15T08:33:55.707Z,2.83
2023-07-15T08:36:22.549Z,3.00
2023-07-15T08:38:50.378Z,2.42
2023-07-15T08:41:18.469Z,2.85
2023-07-15T08:43:49.753Z,2.20
2023-07-15T08:46:28.201Z,1.80
2023-07-15T08:48:57.016Z,2.05
2023-07-15T08:51:26.825Z,1.90
2023-07-15T08:53:55.589Z,1.00
2023-07-15T08:56:22.591Z,1.85
2023-07-15T08:58:49.498Z,1.27
2023-07-15T09:01:16.988Z,1.52
2023-07-15T09:03:44.985Z,1.27
2023-07-15T09:06:12.504Z,2.47
2023-07-15T09:08:43.126Z,0.98
2023-07-15T09:11:14.059Z,2.03
2023-07-15T09:13:42.887Z,1.33
2023-07-15T09:16:11.203Z,2.63
2023-07-15T09:18:41.654Z,1.55
2023-07-15T09:21:13.365Z,4.47
2023-07-15T09:23:44.620Z,2.45
2023-07-15T09:26:12.260Z,2.65
2023-07-15T09:28:45.909Z,1.33
2023-07-15T09:31:23.725Z,2.67
2023-07-15T09:33:50.583Z,1.85
2023-07-15T09:36:30.923Z,1.77
2023-07-15T09:39:23.554Z,2.55
2023-07-15T09:42:08.056Z,1.63
2023-07-15T09:44:41.974Z,2.83
2023-07-15T09:47:09.589Z,3.03
2023-07-15T09:52:06.625Z,1.80
2023-07-15T09:54:35.283Z,1.30
2023-07-15T09:57:15.239Z,1.23
2023-07-15T09:59:49.752Z,2.67
2023-07-15T10:02:36.457Z,2.08
2023-07-15T10:05:06.938Z,1.20
2023-07-15T10:07:34.172Z,2.80
2023-07-15T10:10:01.704Z,2.00
2023-07-15T10:14:57.746Z,1.27
2023-07-15T10:17:34.888Z,1.63
2023-07-15T10:20:12.949Z,2.85
2023-07-15T10:22:43.858Z,4.03
2023-07-15T10:25:13.203Z,4.85
2023-07-15T10:27:40.064Z,2.72
2023-07-15T10:30:28.256Z,2.42
2023-07-15T10:33:07.294Z,4.60
2023-07-15T10:35:41.431Z,3.28
2023-07-15T10:38:22.161Z,1.83
2023-07-15T10:40:50.288Z,2.78
2023-07-15T10:43:25.473Z,3.30
2023-07-15T10:45:56.969Z,2.05
2023-07-15T10:48:23.977Z,3.47
2023-07-15T10:50:56.031Z,2.38
2023-07-15T10:53:28.510Z,3.92
2023-07-15T10:56:22.422Z,2.83
2023-07-15T10:58:49.049Z,1.70
2023-07-15T11:01:15.706Z,1.63
2023-07-15T11:03:43.611Z,4.03
2023-07-15T11:06:11.563Z,2.90
2023-07-15T11:08:42.452Z,1.88
2023-07-15T11:11:13.855Z,2.75
2023-07-15T11:13:43.372Z,4.03
2023-07-15T11:16:10.335Z,2.63
2023-07-15T11:18:36.980Z,1.27
2023-07-15T11:21:04.031Z,2.10
2023-07-15T11:23:34.328Z,2.83
2023-07-15T11:26:10.754Z,3.00
2023-07-15T11:28:51.297Z,2.38
2023-07-15T11:31:22.047Z,3.03
2023-07-15T11:33:58.658Z,4.18
2023-07-15T11:36:25.385Z,1.98
2023-07-15T11:38:51.984Z,4.20
2023-07-15T11:41:19.249Z,3.47
2023-07-15T11:43:45.940Z,3.15
2023-07-15T11:46:12.694Z,2.78
2023-07-15T11:48:41.323Z,4.70
2023-07-15T11:51:09.329Z,3.13
2023-07-15T11:53:38.412Z,3.67
2023-07-15T11:56:12.026Z,1.95
2023-07-15T12:01:07.005Z,3.15
2023-07-15T12:03:34.016Z,3.30
2023-07-15T12:06:01.124Z,2.53
2023-07-15T12:08:27.857Z,4.15
2023-07-15T12:10:59.757Z,3.60
2023-07-15T12:13:28.983Z,3.63
2023-07-15T12:15:55.838Z,3.53
2023-07-15T12:18:22.629Z,7.15
2023-07-15T12:20:49.379Z,3.67
2023-07-15T12:23:16.011Z,4.30
2023-07-15T12:25:42.611Z,4.10
2023-07-15T12:28:09.428Z,2.60
2023-07-15T12:30:36.244Z,1.52
2023-07-15T12:33:02.900Z,3.95
2023-07-15T12:35:29.697Z,5.25
2023-07-15T12:37:56.188Z,2.17
2023-07-15T12:40:22.965Z,3.10
2023-07-15T12:42:50.013Z,5.88
2023-07-15T12:45:17.446Z,6.07
2023-07-15T12:50:11.795Z,3.05
2023-07-15T12:52:39.734Z,3.97
2023-07-15T12:55:06.982Z,6.03
2023-07-15T13:00:00.684Z,2.38
2023-07-15T13:02:27.418Z,2.65
2023-07-15T13:04:54.221Z,4.60
2023-07-15T13:07:22.907Z,2.58
2023-07-15T13:09:49.998Z,2.67
2023-07-15T13:12:16.539Z,2.30
2023-07-15T13:14:45.811Z,3.90
2023-07-15T13:17:12.337Z,3.45
2023-07-15T13:19:38.862Z,2.80
2023-07-15T13:22:06.114Z,2.67
2023-07-15T13:24:32.939Z,3.03
2023-07-15T13:27:00.016Z,5.05
2023-07-15T13:29:26.552Z,2.78
2023-07-15T13:31:53.309Z,2.80
2023-07-15T13:34:22.841Z,3.05
2023-07-15T13:36:49.422Z,3.97
2023-07-15T13:39:38.199Z,4.18
2023-07-15T13:42:07.074Z,2.50
2023-07-15T13:44:37.031Z,1.60
2023-07-15T13:47:04.559Z,2.65
2023-07-15T13:49:33.179Z,4.05
2023-07-15T13:52:01.125Z,4.20
2023-07-15T13:54:33.473Z,2.80
2023-07-15T13:57:02.145Z,5.03
2023-07-15T13:59:28.937Z,4.45
2023-07-15T14:01:55.678Z,4.35
2023-07-15T14:04:22.907Z,4.60
2023-07-15T14:06:49.728Z,5.38
2023-07-15T14:09:17.848Z,3.63
2023-07-15T14:11:46.125Z,4.15
2023-07-15T14:14:16.486Z,4.45
2023-07-15T14:16:43.404Z,2.80
2023-07-15T14:19:10.090Z,2.75
2023-07-15T14:21:36.584Z,3.47
2023-07-15T14:24:05.787Z,4.82
2023-07-15T14:26:33.835Z,3.08
2023-07-15T14:29:01.133Z,2.63
2023-07-15T14:31:28.158Z,3.97
2023-07-15T14:33:55.663Z,4.15
2023-07-15T14:36:23.890Z,3.95
2023-07-15T14:38:51.458Z,1.83
2023-07-15T14:41:19.000Z,4.45
2023-07-15T14:46:12.428Z,3.80
2023-07-15T14:48:40.901Z,3.83
2023-07-15T14:51:08.337Z,4.38
2023-07-15T14:53:35.325Z,3.50
2023-07-15T14:56:04.384Z,2.50
2023-07-15T14:58:31.238Z,3.00
2023-07-15T15:00:57.815Z,3.13
2023-07-15T15:03:24.496Z,7.97
2023-07-15T15:05:51.587Z,5.65
2023-07-15T15:08:18.555Z,3.80
2023-07-15T15:10:46.004Z,8.15
2023-07-15T15:13:12.900Z,9.38
2023-07-15T15:15:41.531Z,5.93
2023-07-15T15:18:08.146Z,4.97
2023-07-15T15:20:34.932Z,7.47
2023-07-15T15:23:01.682Z,4.35
2023-07-15T15:25:28.417Z,7.07
2023-07-15T15:27:55.119Z,5.30
2023-07-15T15:30:22.211Z,8.63
2023-07-15T15:32:48.989Z,7.63
2023-07-15T15:35:16.164Z,2.90
2023-07-15T15:37:43.055Z,4.65
2023-07-15T15:40:10.361Z,6.20
2023-07-15T15:42:37.840Z,7.88
2023-07-15T15:45:06.598Z,3.38
2023-07-15T15:47:34.996Z,6.32
2023-07-15T15:50:01.834Z,7.22
2023-07-15T15:52:28.490Z,8.85
2023-07-15T15:54:57.676Z,4.03
2023-07-15T15:57:25.306Z,7.90
2023-07-15T15:59:52.196Z,6.50
2023-07-15T16:02:19.065Z,5.38
2023-07-15T16:04:46.177Z,5.78
2023-07-15T16:07:12.810Z,3.92
2023-07-15T16:09:44.080Z,6.22
2023-07-15T16:12:10.878Z,4.80
2023-07-15T16:14:37.475Z,6.05
2023-07-15T16:17:04.910Z,7.38
2023-07-15T16:19:31.815Z,5.32
2023-07-15T16:22:00.753Z,5.60
2023-07-15T16:24:27.553Z,3.92
2023-07-15T16:26:54.070Z,3.50
2023-07-15T16:29:21.367Z,4.47
2023-07-15T16:31:48.013Z,6.75
2023-07-15T16:34:17.691Z,5.75
2023-07-15T16:36:45.105Z,4.00
2023-07-15T16:39:14.230Z,5.63
2023-07-15T16:41:41.129Z,6.35
2023-07-15T16:44:07.906Z,5.13
2023-07-15T16:46:34.601Z,6.13
2023-07-15T16:49:01.619Z,3.55
2023-07-15T16:51:28.299Z,4.68
2023-07-15T16:53:55.060Z,5.35
2023-07-15T16:56:21.620Z,4.25
2023-07-15T16:58:48.198Z,6.35
2023-07-15T17:01:18.295Z,3.42
2023-07-15T17:03:47.070Z,4.72
2023-07-15T17:06:14.060Z,5.80
2023-07-15T17:08:42.582Z,3.63
2023-07-15T17:11:09.257Z,3.97
2023-07-15T17:13:37.290Z,4.63
2023-07-15T17:16:06.673Z,4.88
2023-07-15T17:18:33.765Z,4.10
2023-07-15T17:21:00.406Z,4.47
2023-07-15T17:23:26.964Z,5.07
2023-07-15T17:25:53.488Z,4.28
2023-07-15T17:28:20.121Z,2.50
2023-07-15T17:30:47.302Z,4.30
2023-07-15T17:33:14.320Z,6.85
2023-07-15T17:35:44.827Z,3.35
2023-07-15T17:38:13.795Z,7.15
2023-07-15T17:40:42.110Z,3.53
2023-07-15T17:43:08.712Z,3.25
2023-07-15T17:45:35.493Z,2.25
2023-07-15T17:48:08.715Z,5.63
2023-07-15T17:50:36.720Z,3.20
2023-07-15T17:53:05.811Z,6.22
2023-07-15T17:55:32.494Z,4.35
2023-07-15T17:57:59.810Z,4.45
2023-07-15T18:00:27.101Z,6.07
2023-07-15T18:02:54.030Z,4.78
2023-07-15T18:05:20.940Z,3.58
2023-07-15T18:07:47.674Z,7.07
2023-07-15T18:10:14.339Z,5.28
2023-07-15T18:12:43.570Z,4.78
2023-07-15T18:15:11.022Z,5.10
2023-07-15T18:17:37.860Z,4.82
2023-07-15T18:20:06.058Z,5.43
2023-07-15T18:22:34.422Z,5.03
2023-07-15T18:25:01.409Z,3.83
2023-07-15T18:27:28.045Z,3.92
2023-07-15T18:29:54.809Z,2.60
2023-07-15T18:32:21.396Z,4.65
2023-07-15T18:34:48.478Z,4.47
2023-07-15T18:37:15.272Z,3.17
2023-07-15T18:39:41.973Z,5.35
2023-07-15T18:42:09.149Z,2.75
2023-07-15T18:44:35.718Z,6.18
2023-07-15T18:47:03.904Z,6.97
2023-07-15T18:49:30.771Z,4.07
2023-07-15T18:51:57.352Z,6.72
2023-07-15T18:54:23.842Z,4.78
2023-07-15T18:56:50.642Z,4.05
2023-07-15T18:59:17.373Z,5.55
2023-07-15T19:01:44.260Z,6.32
2023-07-15T19:04:11.365Z,5.13
2023-07-15T19:06:37.904Z,3.55
2023-07-15T19:09:04.817Z,5.00
2023-07-15T19:11:31.416Z,5.80
2023-07-15T19:13:58.674Z,4.85
2023-07-15T19:16:25.991Z,6.32
2023-07-15T19:18:52.582Z,2.95
2023-07-15T19:21:19.559Z,6.13
2023-07-15T19:23:46.158Z,4.63
2023-07-15T19:26:12.918Z,5.78
2023-07-15T19:28:39.553Z,5.07
2023-07-15T19:31:06.156Z,3.60
2023-07-15T19:33:32.983Z,5.07
2023-07-15T19:35:59.602Z,2.95
2023-07-15T19:38:26.457Z,7.68
2023-07-15T19:40:53.225Z,8.55
2023-07-15T19:43:19.838Z,4.97
2023-07-15T19:45:46.627Z,6.03
2023-07-15T19:48:13.563Z,5.35
2023-07-15T19:50:40.154Z,7.40
2023-07-15T19:53:07.265Z,7.93
2023-07-15T19:55:34.111Z,8.25
2023-07-15T19:58:01.060Z,11.23
2023-07-15T20:00:28.038Z,8.38
2023-07-15T20:02:55.490Z,8.48
2023-07-15T20:05:22.167Z,6.38
2023-07-15T20:07:49.056Z,5.55
2023-07-15T20:10:15.885Z,4.30
2023-07-15T20:12:42.880Z,4.85
2023-07-15T20:15:09.844Z,6.03
2023-07-15T20:17:36.676Z,12.15
2023-07-15T20:20:04.098Z,3.97
2023-07-15T20:22:30.876Z,6.28
2023-07-15T20:24:57.482Z,5.72
2023-07-15T20:27:24.318Z,6.60
2023-07-15T20:29:51.477Z,8.05
2023-07-15T20:32:21.297Z,8.57
2023-07-15T20:34:48.146Z,7.43
2023-07-15T20:37:15.254Z,5.63
2023-07-15T20:39:41.925Z,6.15
2023-07-15T20:42:08.568Z,4.90
2023-07-15T20:44:35.696Z,8.98
2023-07-15T20:47:02.788Z,7.03
2023-07-15T20:49:29.438Z,7.53
2023-07-15T20:51:56.128Z,10.45
2023-07-15T20:54:22.944Z,10.63
2023-07-15T20:56:49.686Z,7.80
2023-07-15T20:59:16.464Z,9.07
2023-07-15T21:01:43.441Z,10.73
2023-07-15T21:04:10.969Z,3.58
2023-07-15T21:06:37.964Z,6.45
2023-07-15T21:09:04.665Z,12.38
2023-07-15T21:11:31.463Z,8.98
2023-07-15T21:13:58.320Z,12.18
2023-07-15T21:16:26.582Z,7.93
2023-07-15T21:18:53.170Z,7.43
2023-07-15T21:21:21.925Z,10.88
2023-07-15T21:23:50.067Z,8.32
2023-07-15T21:26:18.613Z,7.93
2023-07-15T21:28:46.314Z,10.52
2023-07-15T21:31:13.028Z,9.27
2023-07-15T21:33:40.043Z,12.27
2023-07-15T21:36:08.024Z,4.97
2023-07-15T21:41:01.391Z,9.05
2023-07-15T21:43:30.588Z,5.78
2023-07-15T21:45:57.298Z,9.85
2023-07-15T21:48:23.945Z,9.27
2023-07-15T21:50:50.846Z,9.65
2023-07-15T21:53:19.211Z,5.75
2023-07-15T21:55:46.210Z,10.27
2023-07-15T21:58:14.977Z,10.98
2023-07-15T22:00:42.245Z,10.20
2023-07-15T22:03:10.697Z,12.80
2023-07-15T22:05:37.421Z,13.55
2023-07-15T22:08:04.205Z,10.50
2023-07-15T22:10:30.809Z,12.35
2023-07-15T22:12:57.353Z,12.27
2023-07-15T22:15:23.979Z,8.35
2023-07-15T22:17:50.598Z,12.10
2023-07-15T22:20:17.422Z,4.85
2023-07-15T22:22:43.953Z,11.65
2023-07-15T22:25:11.412Z,10.20
2023-07-15T22:27:38.012Z,8.38
2023-07-15T22:30:07.323Z,6.63
2023-07-15T22:32:34.722Z,8.77
2023-07-15T22:35:01.614Z,8.57
2023-07-15T22:37:32.177Z,3.35
2023-07-15T22:39:58.751Z,4.85
2023-07-15T22:42:25.922Z,15.35
2023-07-15T22:44:52.616Z,8.10
2023-07-15T22:47:19.621Z,7.50
2023-07-15T22:49:46.215Z,13.48
2023-07-15T22:52:13.701Z,6.03
2023-07-15T22:54:40.284Z,9.95
2023-07-15T22:57:08.284Z,5.80
2023-07-15T23:02:04.718Z,8.40
2023-07-15T23:04:31.474Z,8.32
2023-07-15T23:07:02.434Z,7.60
2023-07-15T23:09:30.061Z,4.88
2023-07-15T23:11:56.949Z,9.15
2023-07-15T23:14:23.644Z,6.55
2023-07-15T23:16:50.313Z,15.38
2023-07-15T23:19:17.070Z,8.20
2023-07-15T23:21:43.897Z,8.13
2023-07-15T23:24:10.555Z,6.38
2023-07-15T23:26:37.153Z,7.38
2023-07-15T23:29:03.886Z,13.63
2023-07-15T23:31:30.417Z,10.20
2023-07-15T23:33:57.465Z,7.07
2023-07-15T23:36:24.357Z,9.77
2023-07-15T23:38:51.498Z,10.55
2023-07-15T23:41:21.049Z,6.57
2023-07-15T23:43:49.596Z,7.90
2023-07-15T23:46:16.534Z,14.68
2023-07-15T23:48:43.497Z,8.57
2023-07-15T23:51:10.295Z,9.77
2023-07-15T23:53:36.849Z,8.95
2023-07-15T23:56:06.548Z,10.35
2023-07-15T23:58:33.701Z,5.97
